Ayden, North Carolina
Current Conditions -  °F | °C
As of 11:35 AM on Monday 24 Nov 2014 (Local Time) from KPGV Reporting Station
Overcast Overcast  
Wind Chill: 72°   Ceiling: 2600
Heat Index: 72°   Visibility: 10mi
Dew Point: 64°   Wind: 10mph
Humidity: 78%   Direction: 220°SW
Pressure: 29.88"   Gusts: NA
Location:  35.47°N, 77.42°W
Report Text: KPGV 241635Z AUTO 22009KT 10SM SCT018 BKN026 OVC033 22/18 A2988 RMK AO2 LTG DSNT S
Loading
Personal Weather Stations






























Interactive Weather Map New forecast layout! Learn more

10-Day Weather Forecast

Advertisements
Track Severe Weather on mobile